createdAt,value
2019-03-08T00:00:02.214Z,1.67
2019-03-08T00:02:33.533Z,0.83
2019-03-08T00:05:05.028Z,1.73
2019-03-08T00:07:33.371Z,0.70
2019-03-08T00:10:03.198Z,1.30
2019-03-08T00:12:30.840Z,1.83
2019-03-08T00:14:59.644Z,1.40
2019-03-08T00:17:31.020Z,1.10
2019-03-08T00:19:59.154Z,2.10
2019-03-08T00:22:29.658Z,1.17
2019-03-08T00:24:57.257Z,1.00
2019-03-08T00:27:25.170Z,0.60
2019-03-08T00:29:55.584Z,0.97
2019-03-08T00:32:24.460Z,1.03
2019-03-08T00:34:56.460Z,0.97
2019-03-08T00:37:28.112Z,0.50
2019-03-08T00:40:02.933Z,0.57
2019-03-08T00:42:30.556Z,0.83
2019-03-08T00:44:58.596Z,1.33
2019-03-08T00:47:29.976Z,1.00
2019-03-08T00:50:00.418Z,1.20
2019-03-08T00:52:32.964Z,1.30
2019-03-08T00:55:04.576Z,0.80
2019-03-08T00:57:35.626Z,1.20
2019-03-08T01:00:08.938Z,0.90
2019-03-08T01:02:37.666Z,1.10
2019-03-08T01:05:06.500Z,1.43
2019-03-08T01:07:40.506Z,0.93
2019-03-08T01:10:12.597Z,1.33
2019-03-08T01:12:41.280Z,1.00
2019-03-08T01:15:10.301Z,0.90
2019-03-08T01:17:38.276Z,1.97
2019-03-08T01:20:07.869Z,0.77
2019-03-08T01:22:39.473Z,1.77
2019-03-08T01:25:10.941Z,0.87
2019-03-08T01:28:12.677Z,1.10
2019-03-08T01:30:41.462Z,1.30
2019-03-08T01:33:14.334Z,0.90
2019-03-08T01:35:42.926Z,0.90
2019-03-08T01:38:12.886Z,1.63
2019-03-08T01:40:43.275Z,1.07
2019-03-08T01:43:11.195Z,1.00
2019-03-08T01:45:41.943Z,1.23
2019-03-08T01:48:09.965Z,1.60
2019-03-08T01:50:38.003Z,1.20
2019-03-08T01:53:06.809Z,1.77
2019-03-08T01:55:41.217Z,1.43
2019-03-08T01:58:15.019Z,0.90
2019-03-08T02:00:46.139Z,0.93
2019-03-08T02:03:21.136Z,1.40
2019-03-08T02:05:52.206Z,1.50
2019-03-08T02:08:20.109Z,0.90
2019-03-08T02:10:47.907Z,1.20
2019-03-08T02:13:16.947Z,1.87
2019-03-08T02:15:46.918Z,1.23
2019-03-08T02:18:14.452Z,1.50
2019-03-08T02:20:43.341Z,0.80
2019-03-08T02:23:10.930Z,0.43
2019-03-08T02:25:45.621Z,0.37
2019-03-08T02:28:14.533Z,0.33
2019-03-08T02:30:42.317Z,0.70
2019-03-08T02:33:11.285Z,0.53
2019-03-08T02:35:39.069Z,0.57
2019-03-08T02:38:06.560Z,0.50
2019-03-08T02:40:37.273Z,0.40
2019-03-08T02:43:12.794Z,1.13
2019-03-08T02:45:40.397Z,0.50
2019-03-08T02:48:07.939Z,0.30
2019-03-08T02:50:37.667Z,0.30
2019-03-08T02:53:05.386Z,0.20
2019-03-08T02:55:33.164Z,0.70
2019-03-08T02:58:01.072Z,0.40
2019-03-08T03:00:32.827Z,0.30
2019-03-08T03:03:00.331Z,0.33
2019-03-08T03:05:27.866Z,0.30
2019-03-08T03:07:55.371Z,0.17
2019-03-08T03:10:23.223Z,0.23
2019-03-08T03:12:50.704Z,0.30
2019-03-08T03:15:18.277Z,0.50
2019-03-08T03:17:45.777Z,0.37
2019-03-08T03:20:13.595Z,0.57
2019-03-08T03:22:41.386Z,0.40
2019-03-08T03:25:09.286Z,0.43
2019-03-08T03:27:36.770Z,0.47
2019-03-08T03:30:05.134Z,0.60
2019-03-08T03:32:32.679Z,0.40
2019-03-08T03:35:00.308Z,0.97
2019-03-08T03:37:28.650Z,0.60
2019-03-08T03:39:56.586Z,0.50
2019-03-08T03:42:24.226Z,0.40
2019-03-08T03:44:54.808Z,0.50
2019-03-08T03:47:22.365Z,0.70
2019-03-08T03:49:49.812Z,0.50
2019-03-08T03:52:17.324Z,1.20
2019-03-08T03:54:44.857Z,0.67
2019-03-08T03:57:12.645Z,0.50
2019-03-08T04:02:47.354Z,0.60
2019-03-08T04:05:14.849Z,0.60
2019-03-08T04:07:42.386Z,0.60
2019-03-08T04:10:10.818Z,0.53
2019-03-08T04:12:38.268Z,1.50
2019-03-08T04:15:07.344Z,0.77
2019-03-08T04:17:34.947Z,0.60
2019-03-08T04:20:02.622Z,0.90
2019-03-08T04:22:30.184Z,0.63
2019-03-08T04:24:57.674Z,0.70
2019-03-08T04:27:25.208Z,0.70
2019-03-08T04:29:52.728Z,0.80
2019-03-08T04:32:20.274Z,0.70
2019-03-08T04:34:47.792Z,1.03
2019-03-08T04:37:15.310Z,0.80
2019-03-08T04:39:42.830Z,1.37
2019-03-08T04:42:11.883Z,0.90
2019-03-08T04:44:39.396Z,0.67
2019-03-08T04:47:06.928Z,1.10
2019-03-08T04:49:34.422Z,1.00
2019-03-08T04:52:02.364Z,1.10
2019-03-08T04:54:31.884Z,0.63
2019-03-08T04:56:59.510Z,0.60
2019-03-08T04:59:26.987Z,0.93
2019-03-08T05:01:54.652Z,0.90
2019-03-08T05:04:22.153Z,1.20
2019-03-08T05:06:49.680Z,1.00
2019-03-08T05:09:17.192Z,0.80
2019-03-08T05:11:44.695Z,1.10
2019-03-08T05:14:12.233Z,1.53
2019-03-08T05:16:39.798Z,1.40
2019-03-08T05:19:07.280Z,1.10
2019-03-08T05:21:35.234Z,1.60
2019-03-08T05:24:03.182Z,1.33
2019-03-08T05:26:32.505Z,1.57
2019-03-08T05:28:59.986Z,1.20
2019-03-08T05:31:27.525Z,1.90
2019-03-08T05:33:55.145Z,1.63
2019-03-08T05:36:22.728Z,1.80
2019-03-08T05:38:50.294Z,1.90
2019-03-08T05:41:17.785Z,1.60
2019-03-08T05:43:45.329Z,1.40
2019-03-08T05:46:13.292Z,1.40
2019-03-08T05:48:41.152Z,3.10
2019-03-08T05:51:08.703Z,2.30
2019-03-08T05:53:36.381Z,2.37
2019-03-08T05:56:05.362Z,2.10
2019-03-08T05:58:34.070Z,1.97
2019-03-08T06:01:01.610Z,1.90
2019-03-08T06:03:29.101Z,2.30
2019-03-08T06:05:56.625Z,2.00
2019-03-08T06:08:24.137Z,2.17
2019-03-08T06:10:52.481Z,2.33
2019-03-08T06:13:33.326Z,2.20
2019-03-08T06:16:11.325Z,2.13
2019-03-08T06:18:38.817Z,2.10
2019-03-08T06:21:06.368Z,1.50
2019-03-08T06:23:35.171Z,1.40
2019-03-08T06:26:02.716Z,2.17
2019-03-08T06:28:31.694Z,1.77
2019-03-08T06:31:02.340Z,2.50
2019-03-08T06:33:35.415Z,2.00
2019-03-08T06:36:13.749Z,1.57
2019-03-08T06:38:42.593Z,2.03
2019-03-08T06:41:11.381Z,2.37
2019-03-08T06:43:40.417Z,1.87
2019-03-08T06:46:09.517Z,2.40
2019-03-08T06:48:41.568Z,1.93
2019-03-08T06:51:24.714Z,2.50
2019-03-08T06:53:53.467Z,3.03
2019-03-08T06:56:23.434Z,2.03
2019-03-08T06:59:11.410Z,2.20
2019-03-08T07:01:41.623Z,2.67
2019-03-08T07:04:09.480Z,2.43
2019-03-08T07:06:48.919Z,2.03
2019-03-08T07:09:18.835Z,2.63
2019-03-08T07:11:46.883Z,2.40
2019-03-08T07:14:14.367Z,1.83
2019-03-08T07:16:41.884Z,2.77
2019-03-08T07:19:09.411Z,2.20
2019-03-08T07:22:02.894Z,2.60
2019-03-08T07:24:40.877Z,2.60
2019-03-08T07:27:42.755Z,3.00
2019-03-08T07:30:32.787Z,3.40
2019-03-08T07:33:15.676Z,2.47
2019-03-08T07:36:02.826Z,1.83
2019-03-08T07:38:50.835Z,2.47
2019-03-08T07:41:28.983Z,1.83
2019-03-08T07:44:33.970Z,2.53
2019-03-08T07:47:42.003Z,3.47
2019-03-08T07:50:42.402Z,2.80
2019-03-08T07:53:29.372Z,2.43
2019-03-08T07:56:06.338Z,3.10
2019-03-08T07:58:45.500Z,3.17
2019-03-08T08:01:20.384Z,2.40
2019-03-08T08:04:36.447Z,2.37
2019-03-08T08:07:35.460Z,2.00
2019-03-08T08:10:14.490Z,1.97
2019-03-08T08:13:20.584Z,1.73
2019-03-08T08:16:06.218Z,1.97
2019-03-08T08:19:11.688Z,2.93
2019-03-08T08:21:59.986Z,2.47
2019-03-08T08:24:39.893Z,1.87
2019-03-08T08:27:33.202Z,1.87
2019-03-08T08:30:23.502Z,2.00
2019-03-08T08:33:20.735Z,2.57
2019-03-08T08:36:05.234Z,2.40
2019-03-08T08:39:01.441Z,2.60
2019-03-08T08:41:34.984Z,2.87
2019-03-08T08:44:24.759Z,2.57
2019-03-08T08:47:10.298Z,2.27
2019-03-08T08:50:01.724Z,2.57
2019-03-08T08:52:39.520Z,1.90
2019-03-08T08:55:25.200Z,2.10
2019-03-08T08:58:12.473Z,1.43
2019-03-08T09:01:02.868Z,1.40
2019-03-08T09:03:57.236Z,1.13
2019-03-08T09:06:45.750Z,1.17
2019-03-08T09:09:48.020Z,1.27
2019-03-08T09:12:29.283Z,0.93
2019-03-08T09:15:22.852Z,1.47
2019-03-08T09:18:02.400Z,1.03
2019-03-08T09:20:48.146Z,1.67
2019-03-08T09:23:37.962Z,0.90
2019-03-08T09:26:43.001Z,1.10
2019-03-08T09:29:40.988Z,1.00
2019-03-08T09:32:10.099Z,1.07
2019-03-08T09:34:56.845Z,1.20
2019-03-08T09:37:43.873Z,0.93
2019-03-08T09:40:34.703Z,1.17
2019-03-08T09:43:20.489Z,1.00
2019-03-08T09:46:13.133Z,1.30
2019-03-08T09:49:01.611Z,1.13
2019-03-08T09:51:48.901Z,1.27
2019-03-08T09:54:35.941Z,1.20
2019-03-08T09:57:31.273Z,1.13
2019-03-08T10:00:18.566Z,1.13
2019-03-08T10:02:54.224Z,1.40
2019-03-08T10:05:32.105Z,1.60
2019-03-08T10:08:05.695Z,1.40
2019-03-08T10:10:51.293Z,1.37
2019-03-08T10:13:48.537Z,1.80
2019-03-08T10:16:27.755Z,1.83
2019-03-08T10:19:13.373Z,1.77
2019-03-08T10:21:59.365Z,1.30
2019-03-08T10:24:55.585Z,2.00
2019-03-08T10:27:37.878Z,1.90
2019-03-08T10:30:27.566Z,2.00
2019-03-08T10:33:20.904Z,1.20
2019-03-08T10:36:07.531Z,1.67
2019-03-08T10:38:51.281Z,1.43
2019-03-08T10:41:29.097Z,1.50
2019-03-08T10:44:15.530Z,1.60
2019-03-08T10:46:59.128Z,1.47
2019-03-08T10:49:54.718Z,1.50
2019-03-08T10:52:30.247Z,1.30
2019-03-08T10:55:26.161Z,4.90
2019-03-08T10:58:20.991Z,1.40
2019-03-08T11:01:07.813Z,1.43
2019-03-08T11:04:03.735Z,1.47
2019-03-08T11:06:41.406Z,1.90
2019-03-08T11:09:45.883Z,1.47
2019-03-08T11:12:54.091Z,1.43
2019-03-08T11:16:03.116Z,1.60
2019-03-08T11:19:08.466Z,1.93
2019-03-08T11:21:40.333Z,1.00
2019-03-08T11:24:14.067Z,1.20
2019-03-08T11:27:04.928Z,1.87
2019-03-08T11:29:59.774Z,2.07
2019-03-08T11:32:48.987Z,1.40
2019-03-08T11:35:45.386Z,2.13
2019-03-08T11:38:31.016Z,1.60
2019-03-08T11:41:22.383Z,1.33
2019-03-08T11:44:12.470Z,1.60
2019-03-08T11:47:06.938Z,1.30
2019-03-08T11:49:56.684Z,0.90
2019-03-08T11:52:50.920Z,1.10
2019-03-08T11:55:40.608Z,1.40
2019-03-08T11:58:16.834Z,0.97
2019-03-08T12:00:57.876Z,0.80
2019-03-08T12:04:04.664Z,1.13
2019-03-08T12:06:58.236Z,0.80
2019-03-08T12:09:54.391Z,0.90
2019-03-08T12:12:56.686Z,0.90
2019-03-08T12:15:42.332Z,1.00
2019-03-08T12:18:30.798Z,1.60
2019-03-08T12:21:22.186Z,0.93
2019-03-08T12:24:03.445Z,1.20
2019-03-08T12:26:56.366Z,0.93
2019-03-08T12:29:34.796Z,0.83
2019-03-08T12:32:41.350Z,1.03
2019-03-08T12:35:24.703Z,0.80
2019-03-08T12:38:13.533Z,1.03
2019-03-08T12:40:56.468Z,0.97
2019-03-08T12:43:46.580Z,0.90
2019-03-08T12:46:36.813Z,0.80
2019-03-08T12:49:25.789Z,0.70
2019-03-08T12:52:05.160Z,0.83
2019-03-08T12:54:55.070Z,1.07
2019-03-08T12:57:36.849Z,0.83
2019-03-08T13:00:46.704Z,1.37
2019-03-08T13:03:27.145Z,1.30
2019-03-08T13:06:26.235Z,0.80
2019-03-08T13:09:06.576Z,1.20
2019-03-08T13:11:36.653Z,1.33
2019-03-08T13:14:04.118Z,1.10
2019-03-08T13:16:33.164Z,1.10
2019-03-08T13:19:00.709Z,1.30
2019-03-08T13:21:32.179Z,1.23
2019-03-08T13:24:02.383Z,1.20
2019-03-08T13:26:31.025Z,1.10
2019-03-08T13:28:58.601Z,1.60
2019-03-08T13:31:28.682Z,0.93
2019-03-08T13:33:59.573Z,1.10
2019-03-08T13:36:28.438Z,1.00
2019-03-08T13:38:55.969Z,1.00
2019-03-08T13:41:23.984Z,0.90
2019-03-08T13:43:54.035Z,1.30
2019-03-08T13:46:23.050Z,4.23
2019-03-08T13:48:52.407Z,1.23
2019-03-08T13:51:20.850Z,0.80
2019-03-08T13:53:48.692Z,1.23
2019-03-08T13:56:16.666Z,0.83
2019-03-08T13:58:44.952Z,1.50
2019-03-08T14:01:12.563Z,1.13
2019-03-08T14:03:40.580Z,1.13
2019-03-08T14:06:08.924Z,1.03
2019-03-08T14:08:36.450Z,0.80
2019-03-08T14:11:04.266Z,1.10
2019-03-08T14:13:32.949Z,1.23
2019-03-08T14:16:01.286Z,1.10
2019-03-08T14:18:28.813Z,0.70
2019-03-08T14:20:56.340Z,0.50
2019-03-08T14:23:23.874Z,0.87
2019-03-08T14:25:51.741Z,0.70
2019-03-08T14:28:20.780Z,0.63
2019-03-08T14:31:03.479Z,1.13
2019-03-08T14:33:34.277Z,0.80
2019-03-08T14:36:02.972Z,0.90
2019-03-08T14:38:36.422Z,0.57
2019-03-08T14:41:23.634Z,0.50
2019-03-08T14:44:02.709Z,0.70
2019-03-08T14:46:52.984Z,0.70
2019-03-08T14:49:22.797Z,0.83
2019-03-08T14:51:50.503Z,0.60
2019-03-08T14:54:18.091Z,1.27
2019-03-08T14:56:48.178Z,1.07
2019-03-08T14:59:16.846Z,1.20
2019-03-08T15:01:44.485Z,0.83
2019-03-08T15:04:13.121Z,1.00
2019-03-08T15:06:40.579Z,1.33
2019-03-08T15:09:11.478Z,1.17
2019-03-08T15:11:39.197Z,1.23
2019-03-08T15:14:07.102Z,1.10
2019-03-08T15:16:35.360Z,1.03
2019-03-08T15:19:04.920Z,0.87
2019-03-08T15:21:36.715Z,1.23
2019-03-08T15:24:02.488Z,1.13
2019-03-08T15:26:30.050Z,0.73
2019-03-08T15:28:57.800Z,0.80
2019-03-08T15:31:25.376Z,0.60
2019-03-08T15:33:52.927Z,1.10
2019-03-08T15:36:20.458Z,1.00
2019-03-08T15:38:47.983Z,1.00
2019-03-08T15:41:15.976Z,1.20
2019-03-08T15:43:46.864Z,0.73
2019-03-08T15:46:14.333Z,1.30
2019-03-08T15:48:41.974Z,1.10
2019-03-08T15:51:09.700Z,1.00
2019-03-08T15:53:37.189Z,1.20
2019-03-08T15:56:05.056Z,1.27
2019-03-08T15:58:32.916Z,1.03
2019-03-08T16:01:00.488Z,1.07
2019-03-08T16:03:30.158Z,0.97
2019-03-08T16:05:57.376Z,0.80
2019-03-08T16:08:25.096Z,1.27
2019-03-08T16:10:53.930Z,1.37
2019-03-08T16:13:23.100Z,1.47
2019-03-08T16:15:50.559Z,0.73
2019-03-08T16:18:18.076Z,1.53
2019-03-08T16:20:45.594Z,1.03
2019-03-08T16:23:14.118Z,0.80
2019-03-08T16:25:47.532Z,1.07
2019-03-08T16:28:10.945Z,0.93
2019-03-08T16:30:40.045Z,1.23
2019-03-08T16:33:16.404Z,0.90
2019-03-08T16:35:54.310Z,1.27
2019-03-08T16:38:41.313Z,1.00
2019-03-08T16:41:28.427Z,1.10
2019-03-08T16:44:12.068Z,1.67
2019-03-08T16:46:57.560Z,1.27
2019-03-08T16:49:32.968Z,1.90
2019-03-08T16:52:23.339Z,1.60
2019-03-08T16:55:28.534Z,1.63
2019-03-08T16:58:28.007Z,1.30
2019-03-08T17:01:10.991Z,0.87
2019-03-08T17:03:47.548Z,0.90
2019-03-08T17:06:32.386Z,1.40
2019-03-08T17:09:08.652Z,1.10
2019-03-08T17:12:01.923Z,1.83
2019-03-08T17:14:47.794Z,1.23
2019-03-08T17:17:32.506Z,1.07
2019-03-08T17:20:19.535Z,1.40
2019-03-08T17:23:09.389Z,1.10
2019-03-08T17:26:08.362Z,1.33
2019-03-08T17:28:44.549Z,1.33
2019-03-08T17:31:37.273Z,1.40
2019-03-08T17:34:26.900Z,2.23
2019-03-08T17:37:03.896Z,2.27
2019-03-08T17:39:50.488Z,5.17
2019-03-08T17:42:36.465Z,1.50
2019-03-08T17:45:22.635Z,2.43
2019-03-08T17:48:12.572Z,1.70
2019-03-08T17:51:11.397Z,1.03
2019-03-08T17:53:57.083Z,1.20
2019-03-08T17:56:33.588Z,1.40
2019-03-08T17:59:20.579Z,1.43
2019-03-08T18:02:03.255Z,1.37
2019-03-08T18:04:51.505Z,2.00
2019-03-08T18:07:42.139Z,1.33
2019-03-08T18:10:20.508Z,1.20
2019-03-08T18:13:19.487Z,1.07
2019-03-08T18:16:09.329Z,1.60
2019-03-08T18:19:05.435Z,2.43
2019-03-08T18:21:58.348Z,2.87
2019-03-08T18:24:51.165Z,2.30
2019-03-08T18:27:41.389Z,1.67
2019-03-08T18:30:44.429Z,0.90
2019-03-08T18:33:37.416Z,1.70
2019-03-08T18:36:32.113Z,1.23
2019-03-08T18:39:19.018Z,1.80
2019-03-08T18:42:08.683Z,1.50
2019-03-08T18:45:05.128Z,1.73
2019-03-08T18:47:47.326Z,1.63
2019-03-08T18:50:33.382Z,1.97
2019-03-08T18:53:20.223Z,1.90
2019-03-08T18:56:22.642Z,1.30
2019-03-08T18:59:08.386Z,1.20
2019-03-08T19:01:46.906Z,1.53
2019-03-08T19:04:31.105Z,2.83
2019-03-08T19:07:24.008Z,1.90
2019-03-08T19:10:00.395Z,1.87
2019-03-08T19:12:43.404Z,1.77
2019-03-08T19:15:25.212Z,1.70
2019-03-08T19:18:24.600Z,1.40
2019-03-08T19:21:02.718Z,1.60
2019-03-08T19:23:37.812Z,1.27
2019-03-08T19:26:23.479Z,1.10
2019-03-08T19:29:02.367Z,1.77
2019-03-08T19:31:58.217Z,1.80
2019-03-08T19:34:40.012Z,1.87
2019-03-08T19:37:37.736Z,1.30
2019-03-08T19:40:30.957Z,1.93
2019-03-08T19:43:16.266Z,2.17
2019-03-08T19:45:59.981Z,2.33
2019-03-08T19:48:53.983Z,3.20
2019-03-08T19:51:57.377Z,2.10
2019-03-08T19:54:56.290Z,2.20
2019-03-08T19:57:41.805Z,2.87
2019-03-08T20:00:27.593Z,1.30
2019-03-08T20:03:28.092Z,2.17
2019-03-08T20:06:17.808Z,1.70
2019-03-08T20:09:16.013Z,1.90
2019-03-08T20:12:07.879Z,1.77
2019-03-08T20:15:12.173Z,1.70
2019-03-08T20:17:59.219Z,1.43
2019-03-08T20:20:41.300Z,2.10
2019-03-08T20:23:32.926Z,1.90
2019-03-08T20:26:23.649Z,1.33
2019-03-08T20:29:27.265Z,1.23
2019-03-08T20:32:29.820Z,1.73
2019-03-08T20:35:35.040Z,1.23
2019-03-08T20:38:31.918Z,0.80
2019-03-08T20:41:39.927Z,1.23
2019-03-08T20:44:20.551Z,1.10
2019-03-08T20:46:57.031Z,1.40
2019-03-08T20:49:29.288Z,1.13
2019-03-08T20:52:01.118Z,1.20
2019-03-08T20:54:28.741Z,1.47
2019-03-08T20:57:00.425Z,1.50
2019-03-08T20:59:31.632Z,1.40
2019-03-08T21:02:01.496Z,1.00
2019-03-08T21:04:32.144Z,1.13
2019-03-08T21:07:16.499Z,1.20
2019-03-08T21:09:43.965Z,1.33
2019-03-08T21:12:16.744Z,0.77
2019-03-08T21:14:44.558Z,1.10
2019-03-08T21:17:13.902Z,1.33
2019-03-08T21:19:44.344Z,1.20
2019-03-08T21:22:15.584Z,1.00
2019-03-08T21:24:47.720Z,1.33
2019-03-08T21:27:18.886Z,0.90
2019-03-08T21:29:52.589Z,1.13
2019-03-08T21:32:22.432Z,1.20
2019-03-08T21:34:51.057Z,0.90
2019-03-08T21:37:18.962Z,0.80
2019-03-08T21:39:47.904Z,0.93
2019-03-08T21:42:17.686Z,0.70
2019-03-08T21:44:51.710Z,0.80
2019-03-08T21:47:22.485Z,1.20
2019-03-08T21:49:50.173Z,0.90
2019-03-08T21:52:20.655Z,1.37
2019-03-08T21:54:57.937Z,0.80
2019-03-08T21:57:27.300Z,1.60
2019-03-08T22:00:01.914Z,0.83
2019-03-08T22:02:31.642Z,0.90
2019-03-08T22:05:02.808Z,0.80
2019-03-08T22:07:34.611Z,0.80
2019-03-08T22:10:37.750Z,1.07
2019-03-08T22:13:09.995Z,0.83
2019-03-08T22:15:38.868Z,0.83
2019-03-08T22:18:10.380Z,1.10
2019-03-08T22:20:40.489Z,1.00
2019-03-08T22:23:09.224Z,0.83
2019-03-08T22:25:38.464Z,1.13
2019-03-08T22:28:08.277Z,1.10
2019-03-08T22:30:38.604Z,0.80
2019-03-08T22:33:08.485Z,1.17
2019-03-08T22:35:39.845Z,0.90
2019-03-08T22:38:07.775Z,0.90
2019-03-08T22:40:38.079Z,0.90
2019-03-08T22:43:07.545Z,1.40
2019-03-08T22:45:37.963Z,1.03
2019-03-08T22:48:05.790Z,1.20
2019-03-08T22:50:37.372Z,0.80
2019-03-08T22:53:05.021Z,1.63
2019-03-08T22:55:37.359Z,1.57
2019-03-08T22:58:06.923Z,1.80
2019-03-08T23:01:09.565Z,1.00
2019-03-08T23:03:41.559Z,0.50
2019-03-08T23:06:11.816Z,0.67
2019-03-08T23:08:41.223Z,1.00
2019-03-08T23:11:14.284Z,0.90
2019-03-08T23:13:45.969Z,1.73
2019-03-08T23:16:18.197Z,0.70
2019-03-08T23:18:51.559Z,0.83
2019-03-08T23:21:21.983Z,0.73
2019-03-08T23:23:51.354Z,0.83
2019-03-08T23:26:21.407Z,1.20
2019-03-08T23:29:05.440Z,0.70
2019-03-08T23:32:03.507Z,1.57
2019-03-08T23:34:34.108Z,0.90
2019-03-08T23:37:02.706Z,1.40
2019-03-08T23:39:31.694Z,0.90
2019-03-08T23:42:06.162Z,1.03
2019-03-08T23:44:33.958Z,1.57
2019-03-08T23:47:02.262Z,1.03
2019-03-08T23:49:30.006Z,1.33
2019-03-08T23:52:01.854Z,2.37
2019-03-08T23:54:32.895Z,1.67
2019-03-08T23:57:04.354Z,1.40
2019-03-08T23:59:35.268Z,1.53
